createdAt,value
2022-10-01T00:00:16.821Z,98.5
2022-10-01T00:01:17.542Z,98.5
2022-10-01T00:02:16.744Z,98.5
2022-10-01T00:03:17.306Z,98.5
2022-10-01T00:04:16.778Z,98.5
2022-10-01T00:05:17.229Z,98.5
2022-10-01T00:06:16.677Z,98.5
2022-10-01T00:07:17.117Z,98.5
2022-10-01T00:08:16.548Z,98.5
2022-10-01T00:09:16.974Z,98.4
2022-10-01T00:10:17.419Z,98.4
2022-10-01T00:11:16.900Z,98.5
2022-10-01T00:12:17.190Z,98.5
2022-10-01T00:13:16.700Z,98.6
2022-10-01T00:14:17.169Z,98.6
2022-10-01T00:15:16.635Z,98.5
2022-10-01T00:16:17.210Z,98.5
2022-10-01T00:17:16.688Z,98.5
2022-10-01T00:18:17.150Z,98.5
2022-10-01T00:19:16.606Z,98.5
2022-10-01T00:20:17.084Z,98.5
2022-10-01T00:21:16.539Z,98.5
2022-10-01T00:22:17.018Z,98.4
2022-10-01T00:23:16.472Z,98.4
2022-10-01T00:24:16.935Z,98.4
2022-10-01T00:25:17.439Z,98.4
2022-10-01T00:26:16.926Z,98.3
2022-10-01T00:27:17.393Z,98.3
2022-10-01T00:28:16.926Z,98.3
2022-10-01T00:29:17.401Z,98.4
2022-10-01T00:30:16.876Z,98.4
2022-10-01T00:31:17.475Z,98.4
2022-10-01T00:32:17.427Z,98.5
2022-10-01T00:33:16.860Z,98.4
2022-10-01T00:34:17.323Z,98.5
2022-10-01T00:35:16.763Z,98.5
2022-10-01T00:36:17.186Z,98.5
2022-10-01T00:37:16.619Z,98.7
2022-10-01T00:38:17.085Z,98.8
2022-10-01T00:39:16.556Z,98.7
2022-10-01T00:40:17.053Z,98.7
2022-10-01T00:41:16.548Z,98.5
2022-10-01T00:42:16.875Z,98.5
2022-10-01T00:43:17.335Z,98.5
2022-10-01T00:44:16.791Z,98.5
2022-10-01T00:45:17.284Z,98.5
2022-10-01T00:46:16.861Z,98.4
2022-10-01T00:47:17.356Z,98.3
2022-10-01T00:48:16.799Z,98.3
2022-10-01T00:49:17.240Z,98.5
2022-10-01T00:50:16.722Z,98.5
2022-10-01T00:51:17.152Z,98.5
2022-10-01T00:52:16.715Z,98.4
2022-10-01T00:53:17.171Z,98.5
2022-10-01T00:54:16.636Z,98.4
2022-10-01T00:55:17.125Z,98.5
2022-10-01T00:56:16.606Z,98.5
2022-10-01T00:57:17.057Z,98.5
2022-10-01T00:58:16.525Z,98.5
2022-10-01T00:59:17.005Z,98.4
2022-10-01T01:00:16.503Z,98.3
2022-10-01T01:01:17.098Z,98.3
2022-10-01T01:02:17.496Z,98.2
2022-10-01T01:03:16.986Z,98.2
2022-10-01T01:04:16.943Z,98.2
2022-10-01T01:05:17.586Z,98.3
2022-10-01T01:06:17.034Z,98.3
2022-10-01T01:07:16.457Z,98.3
2022-10-01T01:08:16.902Z,98.3
2022-10-01T01:09:17.411Z,98.3
2022-10-01T01:10:16.877Z,98.2
2022-10-01T01:11:17.337Z,98.2
2022-10-01T01:12:17.149Z,98.0
2022-10-01T01:13:16.628Z,98.0
2022-10-01T01:14:17.085Z,98.0
2022-10-01T01:15:16.610Z,98.1
2022-10-01T01:16:17.229Z,98.2
2022-10-01T01:17:16.677Z,98.2
2022-10-01T01:18:17.109Z,98.4
2022-10-01T01:19:16.537Z,98.3
2022-10-01T01:20:17.006Z,98.5
2022-10-01T01:21:16.444Z,98.5
2022-10-01T01:22:17.321Z,98.5
2022-10-01T01:23:16.747Z,98.5
2022-10-01T01:24:17.204Z,98.5
2022-10-01T01:25:16.820Z,98.8
2022-10-01T01:26:17.271Z,99.2
2022-10-01T01:27:16.750Z,99.2
2022-10-01T01:28:17.338Z,99.3
2022-10-01T01:29:16.843Z,99.3
2022-10-01T01:30:17.360Z,99.4
2022-10-01T01:31:16.950Z,99.4
2022-10-01T01:32:17.259Z,99.4
2022-10-01T01:33:16.680Z,99.3
2022-10-01T01:34:17.142Z,99.3
2022-10-01T01:35:16.575Z,99.2
2022-10-01T01:36:17.003Z,99.1
2022-10-01T01:37:16.446Z,99.0
2022-10-01T01:38:16.890Z,99.0
2022-10-01T01:39:17.385Z,99.0
2022-10-01T01:40:16.859Z,98.9
2022-10-01T01:41:17.323Z,98.8
2022-10-01T01:42:17.041Z,99.0
2022-10-01T01:43:16.517Z,99.2
2022-10-01T01:44:16.996Z,99.2
2022-10-01T01:45:16.470Z,99.2
2022-10-01T01:46:17.013Z,99.2
2022-10-01T01:47:16.462Z,99.3
2022-10-01T01:48:16.888Z,99.3
2022-10-01T01:49:17.312Z,99.4
2022-10-01T01:50:16.772Z,99.4
2022-10-01T01:51:17.198Z,99.4
2022-10-01T01:52:16.920Z,99.4
2022-10-01T01:53:17.369Z,99.3
2022-10-01T01:54:16.828Z,99.3
2022-10-01T01:55:17.383Z,99.3
2022-10-01T01:56:16.852Z,99.2
2022-10-01T01:57:17.313Z,99.1
2022-10-01T01:58:16.827Z,99.0
2022-10-01T01:59:17.331Z,99.0
2022-10-01T02:00:16.764Z,99.2
2022-10-01T02:01:17.312Z,99.2
2022-10-01T02:02:17.056Z,99.3
2022-10-01T02:03:16.531Z,99.3
2022-10-01T02:04:16.961Z,99.4
2022-10-01T02:05:17.445Z,99.4
2022-10-01T02:06:16.884Z,99.2
2022-10-01T02:07:17.376Z,99.2
2022-10-01T02:08:16.857Z,99.0
2022-10-01T02:09:17.315Z,99.1
2022-10-01T02:10:16.847Z,99.0
2022-10-01T02:11:17.295Z,99.0
2022-10-01T02:12:16.809Z,98.8
2022-10-01T02:13:17.276Z,98.7
2022-10-01T02:14:16.761Z,98.7
2022-10-01T02:15:17.199Z,98.7
2022-10-01T02:16:16.733Z,98.7
2022-10-01T02:17:17.223Z,98.7
2022-10-01T02:18:16.699Z,98.8
2022-10-01T02:19:17.134Z,99.0
2022-10-01T02:20:16.572Z,99.0
2022-10-01T02:21:17.029Z,99.2
2022-10-01T02:22:16.498Z,99.3
2022-10-01T02:23:16.960Z,99.4
2022-10-01T02:24:17.430Z,99.5
2022-10-01T02:25:16.892Z,99.5
2022-10-01T02:26:17.359Z,99.5
2022-10-01T02:27:16.849Z,99.5
2022-10-01T02:28:17.514Z,99.5
2022-10-01T02:29:16.990Z,99.6
2022-10-01T02:30:16.718Z,99.6
2022-10-01T02:31:17.240Z,99.7
2022-10-01T02:32:16.443Z,99.7
2022-10-01T02:33:16.882Z,99.7
2022-10-01T02:34:20.532Z,99.7
2022-10-01T02:35:17.014Z,99.7
2022-10-01T02:36:16.440Z,99.7
2022-10-01T02:37:16.894Z,99.7
2022-10-01T02:38:17.357Z,99.8
2022-10-01T02:39:16.874Z,99.8
2022-10-01T02:40:17.382Z,99.8
2022-10-01T02:41:16.854Z,99.8
2022-10-01T02:42:17.127Z,99.8
2022-10-01T02:43:16.644Z,99.8
2022-10-01T02:44:17.081Z,99.8
2022-10-01T02:45:16.508Z,99.8
2022-10-01T02:46:17.106Z,99.8
2022-10-01T02:47:16.586Z,99.7
2022-10-01T02:48:17.014Z,99.7
2022-10-01T02:49:16.488Z,99.5
2022-10-01T02:50:16.934Z,99.3
2022-10-01T02:51:17.399Z,99.3
2022-10-01T02:52:16.891Z,99.5
2022-10-01T02:53:17.403Z,99.5
2022-10-01T02:54:16.881Z,99.5
2022-10-01T02:55:17.386Z,99.5
2022-10-01T02:56:16.846Z,99.5
2022-10-01T02:57:16.893Z,99.4
2022-10-01T02:58:17.395Z,99.5
2022-10-01T02:59:16.866Z,99.5
2022-10-01T03:00:17.311Z,99.5
2022-10-01T03:01:16.906Z,99.6
2022-10-01T03:02:17.612Z,99.7
2022-10-01T03:03:17.190Z,99.7
2022-10-01T03:04:16.661Z,99.7
2022-10-01T03:05:17.120Z,99.7
2022-10-01T03:06:16.568Z,99.6
2022-10-01T03:07:17.016Z,99.7
2022-10-01T03:08:16.460Z,99.7
2022-10-01T03:09:16.910Z,99.7
2022-10-01T03:10:17.379Z,99.7
2022-10-01T03:11:16.822Z,99.7
2022-10-01T03:12:16.907Z,99.7
2022-10-01T03:13:17.355Z,99.7
2022-10-01T03:14:16.787Z,99.8
2022-10-01T03:15:17.274Z,99.8
2022-10-01T03:16:16.907Z,99.8
2022-10-01T03:17:16.457Z,99.8
2022-10-01T03:18:16.920Z,99.8
2022-10-01T03:19:17.429Z,99.8
2022-10-01T03:20:16.900Z,99.8
2022-10-01T03:21:17.403Z,99.9
2022-10-01T03:22:17.002Z,99.9
2022-10-01T03:23:16.439Z,99.9
2022-10-01T03:24:16.863Z,99.8
2022-10-01T03:25:17.309Z,99.8
2022-10-01T03:26:16.772Z,99.8
2022-10-01T03:27:17.213Z,99.8
2022-10-01T03:28:16.750Z,99.8
2022-10-01T03:29:17.221Z,99.8
2022-10-01T03:30:16.690Z,99.8
2022-10-01T03:31:17.422Z,99.8
2022-10-01T03:32:16.742Z,99.8
2022-10-01T03:33:17.246Z,99.7
2022-10-01T03:34:16.696Z,99.7
2022-10-01T03:35:17.169Z,99.6
2022-10-01T03:36:16.642Z,99.5
2022-10-01T03:37:17.069Z,99.6
2022-10-01T03:38:16.530Z,99.7
2022-10-01T03:39:16.975Z,99.7
2022-10-01T03:40:17.437Z,99.7
2022-10-01T03:41:16.886Z,99.7
2022-10-01T03:42:17.133Z,99.7
2022-10-01T03:43:16.593Z,99.7
2022-10-01T03:44:17.050Z,99.7
2022-10-01T03:45:16.520Z,99.6
2022-10-01T03:46:16.994Z,99.5
2022-10-01T03:47:16.461Z,99.5
2022-10-01T03:48:16.924Z,99.5
2022-10-01T03:49:17.390Z,99.4
2022-10-01T03:50:16.846Z,99.4
2022-10-01T03:51:20.081Z,99.5
2022-10-01T03:52:16.883Z,99.5
2022-10-01T03:53:17.332Z,99.6
2022-10-01T03:54:16.778Z,99.7
2022-10-01T03:55:17.198Z,99.7
2022-10-01T03:56:16.647Z,99.7
2022-10-01T03:57:17.087Z,99.6
2022-10-01T03:58:16.551Z,99.5
2022-10-01T03:59:17.007Z,99.5
2022-10-01T04:00:16.485Z,99.4
2022-10-01T04:01:17.063Z,99.2
2022-10-01T04:02:16.893Z,99.2
2022-10-01T04:03:16.452Z,99.1
2022-10-01T04:04:16.909Z,99.1
2022-10-01T04:05:17.387Z,99.2
2022-10-01T04:06:16.847Z,99.3
2022-10-01T04:07:17.325Z,99.3
2022-10-01T04:08:23.523Z,99.3
2022-10-01T04:09:16.653Z,99.2
2022-10-01T04:10:17.140Z,99.2
2022-10-01T04:11:16.577Z,99.3
2022-10-01T04:12:17.080Z,99.5
2022-10-01T04:13:16.511Z,99.5
2022-10-01T04:14:16.984Z,99.4
2022-10-01T04:15:16.449Z,99.3
2022-10-01T04:16:17.057Z,99.3
2022-10-01T04:17:16.542Z,99.3
2022-10-01T04:18:17.035Z,99.2
2022-10-01T04:19:16.530Z,99.1
2022-10-01T04:20:17.011Z,99.0
2022-10-01T04:21:16.457Z,99.0
2022-10-01T04:22:16.871Z,99.0
2022-10-01T04:23:17.293Z,99.0
2022-10-01T04:24:16.779Z,99.0
2022-10-01T04:25:17.217Z,99.1
2022-10-01T04:26:16.680Z,99.1
2022-10-01T04:27:17.104Z,99.0
2022-10-01T04:28:16.833Z,99.1
2022-10-01T04:29:17.384Z,99.3
2022-10-01T04:30:16.844Z,99.3
2022-10-01T04:31:17.561Z,99.4
2022-10-01T04:32:17.196Z,99.3
2022-10-01T04:33:16.688Z,99.2
2022-10-01T04:34:17.150Z,99.0
2022-10-01T04:35:16.740Z,99.0
2022-10-01T04:36:17.204Z,99.0
2022-10-01T04:37:16.623Z,99.0
2022-10-01T04:38:17.071Z,99.0
2022-10-01T04:39:16.503Z,99.2
2022-10-01T04:40:16.955Z,99.2
2022-10-01T04:41:17.393Z,99.1
2022-10-01T04:42:17.228Z,99.0
2022-10-01T04:43:16.687Z,99.1
2022-10-01T04:44:17.159Z,99.2
2022-10-01T04:45:16.623Z,99.2
2022-10-01T04:46:17.165Z,99.0
2022-10-01T04:47:16.701Z,99.0
2022-10-01T04:48:17.208Z,99.0
2022-10-01T04:49:16.671Z,99.0
2022-10-01T04:50:17.107Z,99.1
2022-10-01T04:51:16.530Z,99.3
2022-10-01T04:52:17.158Z,99.3
2022-10-01T04:53:16.569Z,99.4
2022-10-01T04:54:17.004Z,99.3
2022-10-01T04:55:16.445Z,99.2
2022-10-01T04:56:16.881Z,99.2
2022-10-01T04:57:17.354Z,99.1
2022-10-01T04:58:16.825Z,99.1
2022-10-01T04:59:17.333Z,99.0
2022-10-01T05:00:16.838Z,99.0
2022-10-01T05:01:17.406Z,99.0
2022-10-01T05:02:17.021Z,99.0
2022-10-01T05:03:16.498Z,99.0
2022-10-01T05:04:16.932Z,98.9
2022-10-01T05:05:17.380Z,99.0
2022-10-01T05:06:16.816Z,98.9
2022-10-01T05:07:17.246Z,99.0
2022-10-01T05:08:16.702Z,99.0
2022-10-01T05:09:17.130Z,99.0
2022-10-01T05:10:16.576Z,99.0
2022-10-01T05:11:17.026Z,99.0
2022-10-01T05:12:23.763Z,99.0
2022-10-01T05:13:16.905Z,99.0
2022-10-01T05:14:17.403Z,99.0
2022-10-01T05:15:16.919Z,99.0
2022-10-01T05:16:17.517Z,99.2
2022-10-01T05:17:17.056Z,99.3
2022-10-01T05:18:16.509Z,99.3
2022-10-01T05:19:16.941Z,99.5
2022-10-01T05:20:17.378Z,99.5
2022-10-01T05:21:16.799Z,99.7
2022-10-01T05:22:16.557Z,99.7
2022-10-01T05:23:16.981Z,99.7
2022-10-01T05:24:16.427Z,99.8
2022-10-01T05:25:16.884Z,99.8
2022-10-01T05:26:17.347Z,99.8
2022-10-01T05:27:16.803Z,99.8
2022-10-01T05:28:22.844Z,99.8
2022-10-01T05:29:17.367Z,99.8
2022-10-01T05:30:16.849Z,99.8
2022-10-01T05:31:17.379Z,99.8
2022-10-01T05:32:17.141Z,99.8
2022-10-01T05:33:16.560Z,99.8
2022-10-01T05:34:17.009Z,99.8
2022-10-01T05:35:16.654Z,99.8
2022-10-01T05:36:17.081Z,99.7
2022-10-01T05:37:16.532Z,99.5
2022-10-01T05:38:16.969Z,99.3
2022-10-01T05:39:17.400Z,99.3
2022-10-01T05:40:16.844Z,99.3
2022-10-01T05:41:17.312Z,99.4
2022-10-01T05:42:16.890Z,99.5
2022-10-01T05:43:17.345Z,99.5
2022-10-01T05:44:16.820Z,99.5
2022-10-01T05:45:17.336Z,99.5
2022-10-01T05:46:16.919Z,99.4
2022-10-01T05:47:17.461Z,99.3
2022-10-01T05:48:16.885Z,99.2
2022-10-01T05:49:17.329Z,99.3
2022-10-01T05:50:16.784Z,99.3
2022-10-01T05:51:17.201Z,99.3
2022-10-01T05:52:16.730Z,99.3
2022-10-01T05:53:17.161Z,99.3
2022-10-01T05:54:16.592Z,99.3
2022-10-01T05:55:17.091Z,99.4
2022-10-01T05:56:16.538Z,99.4
2022-10-01T05:57:17.003Z,99.3
2022-10-01T05:58:16.460Z,99.4
2022-10-01T05:59:16.975Z,99.3
2022-10-01T06:00:17.448Z,99.3
2022-10-01T06:01:16.893Z,99.3
2022-10-01T06:02:16.880Z,99.3
2022-10-01T06:03:16.467Z,99.3
2022-10-01T06:04:16.911Z,99.3
2022-10-01T06:05:17.348Z,99.3
2022-10-01T06:06:16.825Z,99.3
2022-10-01T06:07:17.266Z,99.3
2022-10-01T06:08:16.729Z,99.3
2022-10-01T06:09:17.187Z,99.3
2022-10-01T06:10:16.664Z,99.3
2022-10-01T06:11:17.127Z,99.2
2022-10-01T06:12:20.133Z,99.2
2022-10-01T06:13:16.647Z,99.2
2022-10-01T06:14:17.109Z,99.2
2022-10-01T06:15:16.553Z,99.1
2022-10-01T06:16:17.125Z,99.1
2022-10-01T06:17:16.625Z,99.1
2022-10-01T06:18:17.049Z,99.1
2022-10-01T06:19:16.485Z,99.1
2022-10-01T06:20:16.915Z,99.2
2022-10-01T06:21:17.354Z,99.2
2022-10-01T06:22:17.386Z,99.2
2022-10-01T06:23:16.854Z,99.1
2022-10-01T06:24:17.348Z,99.2
2022-10-01T06:25:16.828Z,99.1
2022-10-01T06:26:17.298Z,99.1
2022-10-01T06:27:16.779Z,99.1
2022-10-01T06:28:17.402Z,99.1
2022-10-01T06:29:16.985Z,99.1
2022-10-01T06:30:16.442Z,99.1
2022-10-01T06:31:16.955Z,99.1
2022-10-01T06:32:16.513Z,99.1
2022-10-01T06:33:16.932Z,99.1
2022-10-01T06:34:17.374Z,99.1
2022-10-01T06:35:16.821Z,99.2
2022-10-01T06:36:17.361Z,99.1
2022-10-01T06:37:16.834Z,99.1
2022-10-01T06:38:17.298Z,99.1
2022-10-01T06:39:16.745Z,99.0
2022-10-01T06:40:17.207Z,99.0
2022-10-01T06:41:16.648Z,99.0
2022-10-01T06:42:16.571Z,99.0
2022-10-01T06:43:17.045Z,99.0
2022-10-01T06:44:16.475Z,99.0
2022-10-01T06:45:16.928Z,98.9
2022-10-01T06:46:17.425Z,98.9
2022-10-01T06:47:16.882Z,99.0
2022-10-01T06:48:17.322Z,98.8
2022-10-01T06:49:16.773Z,98.8
2022-10-01T06:50:17.228Z,98.8
2022-10-01T06:51:16.675Z,98.8
2022-10-01T06:52:17.236Z,98.8
2022-10-01T06:53:16.709Z,98.8
2022-10-01T06:54:17.199Z,98.8
2022-10-01T06:55:17.076Z,98.8
2022-10-01T06:56:16.537Z,98.8
2022-10-01T06:57:16.988Z,98.8
2022-10-01T06:58:16.424Z,98.8
2022-10-01T06:59:16.856Z,98.7
2022-10-01T07:00:17.328Z,98.7
2022-10-01T07:01:16.810Z,98.7
2022-10-01T07:02:17.241Z,98.7
2022-10-01T07:03:16.703Z,98.7
2022-10-01T07:04:17.135Z,98.7
2022-10-01T07:05:16.563Z,98.7
2022-10-01T07:06:17.016Z,98.7
2022-10-01T07:07:16.469Z,98.7
2022-10-01T07:08:16.946Z,98.7
2022-10-01T07:09:17.391Z,98.6
2022-10-01T07:10:16.862Z,98.7
2022-10-01T07:11:17.335Z,98.6
2022-10-01T07:12:16.721Z,98.5
2022-10-01T07:13:17.167Z,98.5
2022-10-01T07:14:16.618Z,98.5
2022-10-01T07:15:17.044Z,98.5
2022-10-01T07:16:16.623Z,98.5
2022-10-01T07:17:17.097Z,98.5
2022-10-01T07:18:16.532Z,98.5
2022-10-01T07:19:16.993Z,98.5
2022-10-01T07:20:16.468Z,98.4
2022-10-01T07:21:16.949Z,98.5
2022-10-01T07:22:16.521Z,98.4
2022-10-01T07:23:16.997Z,98.3
2022-10-01T07:24:16.497Z,98.4
2022-10-01T07:25:16.970Z,98.4
2022-10-01T07:26:16.438Z,98.3
2022-10-01T07:27:16.887Z,98.3
2022-10-01T07:28:17.465Z,98.3
2022-10-01T07:29:16.906Z,98.3
2022-10-01T07:30:17.357Z,98.2
2022-10-01T07:31:16.885Z,98.2
2022-10-01T07:32:17.010Z,98.1
2022-10-01T07:33:16.453Z,98.1
2022-10-01T07:34:16.890Z,98.1
2022-10-01T07:35:17.349Z,97.9
2022-10-01T07:36:16.823Z,97.8
2022-10-01T07:37:17.326Z,98.0
2022-10-01T07:38:16.900Z,98.0
2022-10-01T07:39:17.372Z,98.0
2022-10-01T07:40:16.864Z,97.8
2022-10-01T07:41:17.338Z,98.0
2022-10-01T07:42:16.926Z,98.1
2022-10-01T07:43:17.361Z,98.1
2022-10-01T07:44:16.782Z,98.0
2022-10-01T07:45:17.213Z,98.0
2022-10-01T07:46:16.848Z,98.1
2022-10-01T07:47:17.373Z,98.1
2022-10-01T07:48:16.798Z,98.2
2022-10-01T07:49:17.265Z,98.2
2022-10-01T07:50:16.763Z,98.2
2022-10-01T07:51:17.234Z,98.2
2022-10-01T07:52:16.790Z,98.3
2022-10-01T07:53:17.244Z,98.4
2022-10-01T07:54:16.704Z,98.3
2022-10-01T07:55:17.206Z,98.3
2022-10-01T07:56:16.650Z,98.3
2022-10-01T07:57:17.098Z,98.4
2022-10-01T07:58:16.544Z,98.4
2022-10-01T07:59:16.962Z,98.5
2022-10-01T08:00:17.430Z,98.5
2022-10-01T08:01:16.957Z,98.5
2022-10-01T08:02:17.493Z,98.6
2022-10-01T08:03:17.015Z,98.7
2022-10-01T08:04:16.486Z,98.7
2022-10-01T08:05:16.962Z,98.7
2022-10-01T08:06:25.307Z,98.8
2022-10-01T08:07:17.054Z,98.8
2022-10-01T08:08:16.529Z,98.8
2022-10-01T08:09:17.024Z,98.8
2022-10-01T08:10:16.505Z,98.9
2022-10-01T08:11:16.935Z,99.0
2022-10-01T08:12:17.337Z,99.0
2022-10-01T08:13:16.779Z,99.0
2022-10-01T08:14:17.217Z,99.0
2022-10-01T08:15:16.667Z,99.1
2022-10-01T08:16:17.222Z,99.0
2022-10-01T08:17:16.682Z,99.0
2022-10-01T08:18:17.196Z,99.0
2022-10-01T08:19:16.679Z,99.1
2022-10-01T08:20:17.150Z,99.2
2022-10-01T08:21:16.622Z,99.2
2022-10-01T08:22:16.905Z,99.2
2022-10-01T08:23:17.386Z,99.2
2022-10-01T08:24:16.857Z,99.2
2022-10-01T08:25:17.599Z,99.2
2022-10-01T08:26:17.037Z,99.2
2022-10-01T08:27:16.494Z,99.2
2022-10-01T08:28:17.049Z,99.3
2022-10-01T08:29:17.318Z,99.3
2022-10-01T08:30:16.746Z,99.3
2022-10-01T08:31:17.350Z,99.3
2022-10-01T08:32:16.812Z,99.3
2022-10-01T08:33:17.300Z,99.3
2022-10-01T08:34:16.760Z,99.3
2022-10-01T08:35:17.260Z,99.3
2022-10-01T08:36:16.767Z,99.5
2022-10-01T08:37:17.227Z,99.4
2022-10-01T08:38:16.703Z,99.4
2022-10-01T08:39:17.170Z,99.5
2022-10-01T08:40:16.606Z,99.4
2022-10-01T08:41:23.306Z,99.5
2022-10-01T08:42:16.740Z,99.4
2022-10-01T08:43:17.176Z,99.4
2022-10-01T08:44:16.595Z,99.4
2022-10-01T08:45:17.182Z,99.4
2022-10-01T08:46:16.773Z,99.4
2022-10-01T08:47:17.287Z,99.4
2022-10-01T08:48:16.746Z,99.5
2022-10-01T08:49:17.218Z,99.4
2022-10-01T08:50:16.689Z,99.4
2022-10-01T08:51:17.175Z,99.3
2022-10-01T08:52:16.739Z,99.3
2022-10-01T08:53:17.198Z,99.3
2022-10-01T08:54:16.672Z,99.4
2022-10-01T08:55:17.102Z,99.4
2022-10-01T08:56:16.522Z,99.4
2022-10-01T08:57:16.969Z,99.4
2022-10-01T08:58:17.419Z,99.4
2022-10-01T08:59:16.847Z,99.4
2022-10-01T09:00:17.319Z,99.3
2022-10-01T09:01:16.929Z,99.4
2022-10-01T09:02:16.479Z,99.5
2022-10-01T09:03:16.958Z,99.5
2022-10-01T09:04:17.564Z,99.4
2022-10-01T09:05:17.038Z,99.3
2022-10-01T09:06:16.532Z,99.3
2022-10-01T09:07:17.005Z,99.4
2022-10-01T09:08:16.477Z,99.4
2022-10-01T09:09:16.930Z,99.3
2022-10-01T09:10:17.379Z,99.3
2022-10-01T09:11:16.839Z,99.3
2022-10-01T09:12:16.668Z,99.3
2022-10-01T09:13:17.147Z,99.3
2022-10-01T09:14:16.581Z,99.4
2022-10-01T09:15:17.030Z,99.4
2022-10-01T09:16:16.604Z,99.5
2022-10-01T09:17:17.125Z,99.5
2022-10-01T09:18:16.592Z,99.5
2022-10-01T09:19:17.068Z,99.5
2022-10-01T09:20:16.546Z,99.5
2022-10-01T09:21:17.015Z,99.4
2022-10-01T09:22:16.454Z,99.4
2022-10-01T09:23:16.909Z,99.3
2022-10-01T09:24:17.350Z,99.3
2022-10-01T09:25:16.774Z,99.3
2022-10-01T09:26:17.198Z,99.3
2022-10-01T09:27:16.667Z,99.3
2022-10-01T09:28:17.204Z,99.3
2022-10-01T09:29:16.696Z,99.4
2022-10-01T09:30:17.190Z,99.4
2022-10-01T09:31:16.810Z,99.5
2022-10-01T09:32:17.305Z,99.4
2022-10-01T09:33:16.775Z,99.3
2022-10-01T09:34:17.253Z,99.4
2022-10-01T09:35:16.739Z,99.5
2022-10-01T09:36:17.224Z,99.5
2022-10-01T09:37:16.689Z,99.3
2022-10-01T09:38:17.168Z,99.3
2022-10-01T09:39:16.618Z,99.3
2022-10-01T09:40:17.203Z,99.2
2022-10-01T09:41:16.672Z,99.2
2022-10-01T09:42:16.962Z,99.2
2022-10-01T09:43:17.428Z,99.2
2022-10-01T09:44:19.172Z,99.3
2022-10-01T09:45:16.668Z,99.3
2022-10-01T09:46:17.664Z,99.3
2022-10-01T09:47:17.191Z,99.3
2022-10-01T09:48:16.663Z,99.3
2022-10-01T09:49:17.114Z,99.3
2022-10-01T09:50:16.564Z,99.2
2022-10-01T09:51:17.037Z,99.2
2022-10-01T09:52:17.112Z,99.3
2022-10-01T09:53:16.549Z,99.2
2022-10-01T09:54:16.977Z,99.3
2022-10-01T09:55:17.445Z,99.3
2022-10-01T09:56:16.880Z,99.3
2022-10-01T09:57:17.319Z,99.3
2022-10-01T09:58:16.741Z,99.3
2022-10-01T09:59:17.171Z,99.3
2022-10-01T10:00:16.632Z,99.3
2022-10-01T10:01:17.092Z,99.3
2022-10-01T10:02:17.052Z,99.3
2022-10-01T10:03:16.805Z,99.3
2022-10-01T10:04:20.347Z,99.3
2022-10-01T10:05:16.814Z,99.3
2022-10-01T10:06:17.278Z,99.5
2022-10-01T10:07:16.750Z,99.4
2022-10-01T10:08:17.179Z,99.5
2022-10-01T10:09:16.649Z,99.4
2022-10-01T10:10:17.081Z,99.4
2022-10-01T10:11:16.521Z,99.4
2022-10-01T10:12:17.151Z,99.4
2022-10-01T10:13:16.574Z,99.3
2022-10-01T10:14:16.997Z,99.4
2022-10-01T10:15:16.453Z,99.4
2022-10-01T10:16:17.140Z,99.4
2022-10-01T10:17:16.654Z,99.5
2022-10-01T10:18:24.018Z,99.5
2022-10-01T10:19:16.607Z,99.5
2022-10-01T10:20:17.064Z,99.5
2022-10-01T10:21:16.541Z,99.5
2022-10-01T10:22:17.005Z,99.5
2022-10-01T10:23:16.459Z,99.5
2022-10-01T10:24:16.892Z,99.5
2022-10-01T10:25:17.343Z,99.5
2022-10-01T10:26:16.765Z,99.2
2022-10-01T10:27:17.229Z,99.1
2022-10-01T10:28:16.835Z,99.2
2022-10-01T10:29:17.350Z,99.2
2022-10-01T10:30:16.839Z,99.2
2022-10-01T10:31:17.555Z,99.3
2022-10-01T10:32:17.063Z,99.3
2022-10-01T10:33:16.539Z,99.2
2022-10-01T10:34:16.981Z,99.0
2022-10-01T10:35:16.436Z,99.0
2022-10-01T10:36:16.950Z,99.0
2022-10-01T10:37:17.428Z,99.0
2022-10-01T10:38:16.858Z,99.1
2022-10-01T10:39:17.279Z,99.2
2022-10-01T10:40:16.705Z,99.2
2022-10-01T10:41:17.142Z,99.2
2022-10-01T10:42:16.891Z,99.0
2022-10-01T10:43:17.335Z,99.0
2022-10-01T10:44:16.810Z,99.0
2022-10-01T10:45:17.305Z,99.0
2022-10-01T10:46:16.907Z,98.9
2022-10-01T10:47:17.404Z,99.0
2022-10-01T10:48:16.903Z,99.0
2022-10-01T10:49:17.394Z,99.0
2022-10-01T10:50:16.900Z,99.0
2022-10-01T10:51:17.381Z,99.0
2022-10-01T10:52:16.660Z,99.0
2022-10-01T10:53:17.125Z,99.0
2022-10-01T10:54:16.552Z,99.0
2022-10-01T10:55:16.970Z,99.0
2022-10-01T10:56:17.401Z,98.9
2022-10-01T10:57:16.886Z,98.9
2022-10-01T10:58:17.319Z,99.0
2022-10-01T10:59:16.763Z,99.0
2022-10-01T11:00:17.245Z,99.0
2022-10-01T11:01:16.831Z,99.1
2022-10-01T11:02:17.492Z,99.0
2022-10-01T11:03:17.000Z,99.0
2022-10-01T11:04:16.491Z,99.0
2022-10-01T11:05:16.952Z,99.0
2022-10-01T11:06:17.386Z,99.0
2022-10-01T11:07:16.807Z,99.0
2022-10-01T11:08:18.154Z,98.8
2022-10-01T11:09:16.594Z,98.8
2022-10-01T11:10:17.030Z,98.8
2022-10-01T11:11:16.465Z,98.9
2022-10-01T11:12:16.872Z,99.0
2022-10-01T11:13:17.339Z,99.0
2022-10-01T11:14:23.589Z,99.0
2022-10-01T11:15:17.347Z,99.0
2022-10-01T11:16:17.033Z,99.0
2022-10-01T11:17:16.516Z,99.1
2022-10-01T11:18:16.982Z,99.2
2022-10-01T11:19:16.443Z,99.0
2022-10-01T11:20:21.264Z,99.0
2022-10-01T11:21:16.822Z,99.0
2022-10-01T11:22:17.197Z,99.0
2022-10-01T11:23:16.671Z,99.2
2022-10-01T11:24:17.105Z,99.2
2022-10-01T11:25:16.552Z,99.2
2022-10-01T11:26:16.999Z,99.2
2022-10-01T11:27:16.438Z,99.2
2022-10-01T11:28:17.025Z,99.2
2022-10-01T11:29:16.564Z,99.2
2022-10-01T11:30:17.044Z,99.2
2022-10-01T11:31:16.697Z,99.0
2022-10-01T11:32:16.893Z,99.2
2022-10-01T11:33:17.353Z,99.0
2022-10-01T11:34:16.813Z,99.0
2022-10-01T11:35:17.527Z,99.0
2022-10-01T11:36:16.950Z,99.0
2022-10-01T11:37:17.396Z,99.0
2022-10-01T11:38:16.858Z,98.9
2022-10-01T11:39:17.278Z,98.7
2022-10-01T11:40:16.701Z,98.6
2022-10-01T11:41:17.157Z,98.4
2022-10-01T11:42:16.841Z,98.3
2022-10-01T11:43:17.331Z,98.3
2022-10-01T11:44:16.821Z,98.4
2022-10-01T11:45:17.329Z,98.4
2022-10-01T11:46:16.907Z,98.5
2022-10-01T11:47:17.444Z,98.4
2022-10-01T11:48:16.946Z,98.5
2022-10-01T11:49:17.425Z,98.4
2022-10-01T11:50:16.882Z,98.5
2022-10-01T11:51:17.307Z,98.7
2022-10-01T11:52:16.955Z,98.8
2022-10-01T11:53:17.386Z,98.8
2022-10-01T11:54:16.799Z,98.7
2022-10-01T11:55:17.238Z,98.5
2022-10-01T11:56:16.678Z,98.5
2022-10-01T11:57:17.135Z,98.5
2022-10-01T11:58:16.591Z,98.5
2022-10-01T11:59:17.068Z,98.5
2022-10-01T12:00:16.537Z,98.5
2022-10-01T12:01:17.014Z,98.6
2022-10-01T12:02:17.442Z,98.5
2022-10-01T12:03:16.946Z,98.5
2022-10-01T12:04:17.396Z,98.5
2022-10-01T12:05:16.948Z,98.5
2022-10-01T12:06:24.566Z,98.5
2022-10-01T12:07:16.998Z,98.5
2022-10-01T12:08:16.417Z,98.5
2022-10-01T12:09:16.860Z,98.5
2022-10-01T12:10:17.339Z,98.5
2022-10-01T12:11:16.772Z,98.5
2022-10-01T12:12:17.334Z,98.5
2022-10-01T12:13:16.805Z,98.6
2022-10-01T12:14:17.271Z,98.5
2022-10-01T12:15:16.737Z,98.5
2022-10-01T12:16:17.305Z,98.5
2022-10-01T12:17:16.767Z,98.5
2022-10-01T12:18:17.220Z,98.7
2022-10-01T12:19:16.703Z,98.7
2022-10-01T12:20:17.143Z,98.7
2022-10-01T12:21:16.574Z,98.7
2022-10-01T12:22:24.261Z,98.5
2022-10-01T12:23:16.948Z,98.7
2022-10-01T12:24:17.402Z,98.8
2022-10-01T12:25:16.827Z,98.8
2022-10-01T12:26:17.259Z,98.7
2022-10-01T12:27:16.740Z,98.6
2022-10-01T12:28:17.485Z,98.6
2022-10-01T12:29:17.040Z,98.5
2022-10-01T12:30:16.494Z,98.6
2022-10-01T12:31:17.039Z,98.7
2022-10-01T12:32:16.650Z,98.6
2022-10-01T12:33:17.087Z,98.7
2022-10-01T12:34:16.509Z,98.6
2022-10-01T12:35:16.954Z,98.6
2022-10-01T12:36:17.403Z,98.7
2022-10-01T12:37:16.880Z,98.8
2022-10-01T12:38:17.349Z,98.8
2022-10-01T12:39:16.786Z,98.8
2022-10-01T12:40:17.221Z,98.7
2022-10-01T12:41:16.661Z,98.7
2022-10-01T12:42:17.288Z,98.7
2022-10-01T12:43:16.723Z,98.8
2022-10-01T12:44:17.194Z,98.8
2022-10-01T12:45:16.676Z,98.8
2022-10-01T12:46:17.360Z,98.8
2022-10-01T12:47:16.859Z,98.8
2022-10-01T12:48:17.282Z,98.8
2022-10-01T12:49:16.734Z,98.8
2022-10-01T12:50:17.154Z,98.9
2022-10-01T12:51:16.589Z,98.9
2022-10-01T12:52:16.468Z,99.0
2022-10-01T12:53:16.910Z,99.0
2022-10-01T12:54:17.348Z,99.0
2022-10-01T12:55:17.029Z,99.0
2022-10-01T12:56:16.510Z,99.0
2022-10-01T12:57:16.972Z,99.0
2022-10-01T12:58:16.437Z,99.0
2022-10-01T12:59:16.891Z,99.1
2022-10-01T13:00:17.638Z,99.1
2022-10-01T13:01:17.179Z,99.2
2022-10-01T13:02:17.733Z,99.2
2022-10-01T13:03:17.257Z,99.2
2022-10-01T13:04:16.692Z,99.2
2022-10-01T13:05:17.322Z,99.1
2022-10-01T13:06:16.835Z,99.1
2022-10-01T13:07:17.255Z,99.1
2022-10-01T13:08:16.707Z,99.2
2022-10-01T13:09:17.129Z,99.2
2022-10-01T13:10:16.581Z,99.1
2022-10-01T13:11:17.018Z,99.0
2022-10-01T13:12:16.691Z,98.8
2022-10-01T13:13:17.186Z,98.8
2022-10-01T13:14:16.690Z,98.8
2022-10-01T13:15:17.166Z,98.6
2022-10-01T13:16:16.784Z,98.7
2022-10-01T13:17:17.281Z,98.3
2022-10-01T13:18:16.722Z,98.2